Terminal Aerodrome Forecast
Issued by NWS

Home | Current Version | Previous Version | Text Only | Print | Product List | Glossary On
Versions: 1 2 3 4 5 6 7 8 9 10 11 12 13 14 15 16 17 18 19 20 21
000
FTUS43 KDLH 212339
TAFHYR
TAF
KHYR 212339Z 2200/2224 18007KT P6SM BKN035 OVC080
     FM220800 00000KT P6SM OVC010
     FM221000 00000KT P6SM OVC003
     FM221400 00000KT P6SM BKN060=

USA.gov is the U.S. government's official web portal to all federal, state and local government web resources and services.